createdAt,value
2016-05-06T00:00:00.539Z,0
2016-05-06T00:01:00.587Z,0
2016-05-06T00:02:00.621Z,0
2016-05-06T00:03:00.656Z,0
2016-05-06T00:04:00.706Z,0
2016-05-06T00:05:00.739Z,0
2016-05-06T00:06:00.788Z,0
2016-05-06T00:07:00.822Z,0
2016-05-06T00:08:00.855Z,0
2016-05-06T00:09:00.906Z,0
2016-05-06T00:10:00.940Z,0
2016-05-06T00:11:01.333Z,0
2016-05-06T00:12:01.023Z,0
2016-05-06T00:13:01.074Z,0
2016-05-06T00:14:01.107Z,0
2016-05-06T00:15:01.141Z,0
2016-05-06T00:16:01.190Z,0
2016-05-06T00:17:01.224Z,0
2016-05-06T00:18:01.117Z,0
2016-05-06T00:19:01.308Z,0
2016-05-06T00:20:01.342Z,0
2016-05-06T00:21:01.368Z,0
2016-05-06T00:22:01.419Z,0
2016-05-06T00:23:01.327Z,0
2016-05-06T00:24:01.502Z,0
2016-05-06T00:25:01.535Z,0
2016-05-06T00:26:01.585Z,0
2016-05-06T00:27:01.619Z,0
2016-05-06T00:28:01.669Z,0
2016-05-06T00:29:01.718Z,0
2016-05-06T00:30:01.737Z,0
2016-05-06T00:31:01.630Z,0
2016-05-06T00:32:01.820Z,0
2016-05-06T00:33:01.854Z,0
2016-05-06T00:34:01.748Z,0
2016-05-06T00:35:01.937Z,0
2016-05-06T00:36:01.988Z,0
2016-05-06T00:37:02.021Z,0
2016-05-06T00:38:02.070Z,0
2016-05-06T00:39:01.948Z,0
2016-05-06T00:40:02.170Z,0
2016-05-06T00:41:02.156Z,0
2016-05-06T00:42:02.222Z,0
2016-05-06T00:43:02.116Z,0
2016-05-06T00:44:02.322Z,0
2016-05-06T00:45:02.339Z,0
2016-05-06T00:46:02.389Z,0
2016-05-06T00:47:02.454Z,0
2016-05-06T00:48:02.488Z,0
2016-05-06T00:49:02.522Z,0
2016-05-06T00:50:02.541Z,0
2016-05-06T00:51:02.574Z,0
2016-05-06T00:52:02.655Z,0
2016-05-06T00:53:02.658Z,0
2016-05-06T00:54:02.552Z,0
2016-05-06T00:55:02.741Z,0
2016-05-06T00:56:03.338Z,0
2016-05-06T00:57:02.825Z,0
2016-05-06T00:58:02.859Z,0
2016-05-06T00:59:02.909Z,0
2016-05-06T01:00:02.786Z,0
2016-05-06T01:01:02.993Z,0
2016-05-06T01:02:03.026Z,0
2016-05-06T01:03:03.060Z,0
2016-05-06T01:04:03.109Z,0
2016-05-06T01:05:03.143Z,0
2016-05-06T01:06:03.021Z,0
2016-05-06T01:07:03.227Z,0
2016-05-06T01:08:03.120Z,0
2016-05-06T01:09:03.311Z,0
2016-05-06T01:10:03.360Z,0
2016-05-06T01:11:03.394Z,0
2016-05-06T01:12:03.428Z,0
2016-05-06T01:13:03.461Z,0
2016-05-06T01:14:03.512Z,0
2016-05-06T01:15:03.545Z,0
2016-05-06T01:16:03.595Z,0
2016-05-06T01:17:03.628Z,0
2016-05-06T01:18:03.663Z,0
2016-05-06T01:19:03.713Z,0
2016-05-06T01:20:03.747Z,0
2016-05-06T01:21:03.780Z,0
2016-05-06T01:22:03.829Z,0
2016-05-06T01:23:03.864Z,0
2016-05-06T01:24:03.757Z,0
2016-05-06T01:25:03.947Z,0
2016-05-06T01:26:04.090Z,0
2016-05-06T01:27:04.016Z,0
2016-05-06T01:28:04.065Z,0
2016-05-06T01:29:03.958Z,0
2016-05-06T01:30:03.992Z,0
2016-05-06T01:31:04.229Z,0
2016-05-06T01:32:04.076Z,0
2016-05-06T01:33:04.265Z,0
2016-05-06T01:34:04.143Z,0
2016-05-06T01:35:04.348Z,0
2016-05-06T01:36:04.384Z,0
2016-05-06T01:37:04.417Z,0
2016-05-06T01:38:04.466Z,0
2016-05-06T01:39:04.500Z,0
2016-05-06T01:40:04.566Z,0
2016-05-06T01:41:05.037Z,0
2016-05-06T01:42:04.617Z,0
2016-05-06T01:43:04.668Z,0
2016-05-06T01:44:04.561Z,0
2016-05-06T01:45:04.751Z,0
2016-05-06T01:46:04.785Z,0
2016-05-06T01:47:04.819Z,0
2016-05-06T01:48:04.869Z,0
2016-05-06T01:49:04.903Z,0
2016-05-06T01:50:04.936Z,0
2016-05-06T01:51:04.985Z,0
2016-05-06T01:52:05.036Z,0
2016-05-06T01:53:05.070Z,0
2016-05-06T01:54:05.119Z,0
2016-05-06T01:55:05.137Z,0
2016-05-06T01:56:05.609Z,0
2016-05-06T01:57:05.221Z,0
2016-05-06T01:58:05.114Z,0
2016-05-06T01:59:05.148Z,0
2016-05-06T02:00:05.338Z,0
2016-05-06T02:01:05.388Z,0
2016-05-06T02:02:05.421Z,0
2016-05-06T02:03:05.471Z,0
2016-05-06T02:04:05.348Z,0
2016-05-06T02:05:05.383Z,0
2016-05-06T02:06:05.432Z,0
2016-05-06T02:07:05.467Z,0
2016-05-06T02:08:05.656Z,0
2016-05-06T02:09:05.706Z,0
2016-05-06T02:10:05.740Z,0
2016-05-06T02:11:06.086Z,0
2016-05-06T02:12:05.667Z,0
2016-05-06T02:13:05.858Z,0
2016-05-06T02:14:05.907Z,0
2016-05-06T02:15:05.941Z,0
2016-05-06T02:16:05.991Z,0
2016-05-06T02:17:06.025Z,0
2016-05-06T02:18:06.075Z,0
2016-05-06T02:19:05.967Z,0
2016-05-06T02:20:05.986Z,0
2016-05-06T02:21:06.176Z,0
2016-05-06T02:22:06.225Z,0
2016-05-06T02:23:06.275Z,0
2016-05-06T02:24:06.312Z,0
2016-05-06T02:25:06.347Z,0
2016-05-06T02:26:06.240Z,0
2016-05-06T02:27:06.431Z,0
2016-05-06T02:28:06.464Z,0
2016-05-06T02:29:06.186Z,0
2016-05-06T02:30:06.406Z,0
2016-05-06T02:31:06.598Z,0
2016-05-06T02:32:06.631Z,0
2016-05-06T02:33:06.664Z,0
2016-05-06T02:34:06.714Z,0
2016-05-06T02:35:06.749Z,0
2016-05-06T02:36:06.798Z,0
2016-05-06T02:37:06.675Z,0
2016-05-06T02:38:06.867Z,0
2016-05-06T02:39:06.744Z,0
2016-05-06T02:40:06.950Z,0
2016-05-06T02:41:06.843Z,0
2016-05-06T02:42:07.032Z,0
2016-05-06T02:43:07.066Z,0
2016-05-06T02:44:07.102Z,0
2016-05-06T02:45:07.151Z,0
2016-05-06T02:46:07.028Z,0
2016-05-06T02:47:07.235Z,0
2016-05-06T02:48:07.268Z,0
2016-05-06T02:49:07.301Z,0
2016-05-06T02:50:07.179Z,0
2016-05-06T02:51:07.386Z,0
2016-05-06T02:52:07.420Z,0
2016-05-06T02:53:07.312Z,0
2016-05-06T02:54:07.363Z,0
2016-05-06T02:55:07.552Z,0
2016-05-06T02:56:08.352Z,0
2016-05-06T02:57:07.620Z,0
2016-05-06T02:58:07.670Z,0
2016-05-06T02:59:07.704Z,0
2016-05-06T03:00:07.598Z,0
2016-05-06T03:01:07.787Z,0
2016-05-06T03:02:07.821Z,0
2016-05-06T03:03:07.856Z,0
2016-05-06T03:04:07.905Z,0
2016-05-06T03:05:07.798Z,0
2016-05-06T03:06:07.988Z,0
2016-05-06T03:07:07.866Z,0
2016-05-06T03:08:07.916Z,0
2016-05-06T03:09:08.105Z,0
2016-05-06T03:10:08.139Z,0
2016-05-06T03:11:08.049Z,0
2016-05-06T03:12:08.224Z,0
2016-05-06T03:13:08.272Z,0
2016-05-06T03:14:08.322Z,0
2016-05-06T03:15:08.356Z,0
2016-05-06T03:16:08.375Z,0
2016-05-06T03:17:08.424Z,0
2016-05-06T03:18:08.474Z,0
2016-05-06T03:19:08.507Z,0
2016-05-06T03:20:08.541Z,0
2016-05-06T03:21:08.591Z,0
2016-05-06T03:22:08.625Z,0
2016-05-06T03:23:08.503Z,0
2016-05-06T03:24:08.552Z,0
2016-05-06T03:25:08.743Z,0
2016-05-06T03:26:08.636Z,0
2016-05-06T03:27:08.826Z,0
2016-05-06T03:28:08.876Z,0
2016-05-06T03:29:08.925Z,0
2016-05-06T03:30:08.943Z,0
2016-05-06T03:31:08.993Z,0
2016-05-06T03:32:09.027Z,0
2016-05-06T03:33:09.076Z,0
2016-05-06T03:34:09.111Z,0
2016-05-06T03:35:08.988Z,0
2016-05-06T03:36:09.038Z,0
2016-05-06T03:37:09.072Z,0
2016-05-06T03:38:09.262Z,0
2016-05-06T03:39:09.327Z,0
2016-05-06T03:40:09.189Z,0
2016-05-06T03:41:09.421Z,0
2016-05-06T03:42:09.437Z,0
2016-05-06T03:43:09.487Z,0
2016-05-06T03:44:09.617Z,0
2016-05-06T03:45:09.541Z,0
2016-05-06T03:46:09.575Z,0
2016-05-06T03:47:09.625Z,0
2016-05-06T03:48:09.503Z,0
2016-05-06T03:49:09.693Z,0
2016-05-06T03:50:09.743Z,0
2016-05-06T03:51:09.776Z,0
2016-05-06T03:52:09.810Z,0
2016-05-06T03:53:09.844Z,0
2016-05-06T03:54:09.909Z,4
2016-05-06T03:55:09.788Z,4
2016-05-06T03:56:11.477Z,4
2016-05-06T03:57:10.012Z,4
2016-05-06T03:58:10.060Z,4
2016-05-06T03:59:10.095Z,4
2016-05-06T04:00:10.129Z,4
2016-05-06T04:01:10.179Z,4
2016-05-06T04:02:10.212Z,4
2016-05-06T04:03:10.261Z,4
2016-05-06T04:04:09.984Z,0
2016-05-06T04:05:10.345Z,0
2016-05-06T04:06:10.378Z,0
2016-05-06T04:07:10.414Z,0
2016-05-06T04:08:10.463Z,0
2016-05-06T04:09:10.497Z,0
2016-05-06T04:10:10.546Z,0
2016-05-06T04:11:11.393Z,0
2016-05-06T04:12:10.629Z,0
2016-05-06T04:13:10.664Z,0
2016-05-06T04:14:10.541Z,0
2016-05-06T04:15:10.731Z,0
2016-05-06T04:16:10.781Z,0
2016-05-06T04:17:10.830Z,0
2016-05-06T04:18:10.864Z,4
2016-05-06T04:19:10.741Z,4
2016-05-06T04:20:10.949Z,4
2016-05-06T04:21:10.982Z,4
2016-05-06T04:22:11.016Z,4
2016-05-06T04:23:11.049Z,4
2016-05-06T04:24:11.099Z,4
2016-05-06T04:25:11.149Z,4
2016-05-06T04:26:11.182Z,4
2016-05-06T04:27:11.217Z,4
2016-05-06T04:28:11.266Z,4
2016-05-06T04:29:11.301Z,4
2016-05-06T04:30:11.334Z,4
2016-05-06T04:31:11.384Z,4
2016-05-06T04:32:11.434Z,4
2016-05-06T04:33:11.468Z,4
2016-05-06T04:34:11.345Z,4
2016-05-06T04:35:11.551Z,4
2016-05-06T04:36:11.585Z,0
2016-05-06T04:37:11.619Z,0
2016-05-06T04:38:11.668Z,0
2016-05-06T04:39:11.702Z,0
2016-05-06T04:40:11.736Z,0
2016-05-06T04:41:11.864Z,4
2016-05-06T04:42:11.836Z,4
2016-05-06T04:43:11.853Z,4
2016-05-06T04:44:11.747Z,4
2016-05-06T04:45:11.937Z,4
2016-05-06T04:46:11.986Z,4
2016-05-06T04:47:12.021Z,4
2016-05-06T04:48:11.914Z,4
2016-05-06T04:49:11.948Z,4
2016-05-06T04:50:12.138Z,4
2016-05-06T04:51:12.188Z,4
2016-05-06T04:52:12.221Z,4
2016-05-06T04:53:12.271Z,4
2016-05-06T04:54:12.305Z,4
2016-05-06T04:55:12.339Z,4
2016-05-06T04:56:12.076Z,4
2016-05-06T04:57:12.423Z,4
2016-05-06T04:58:12.488Z,4
2016-05-06T04:59:12.349Z,0
2016-05-06T05:00:12.540Z,4
2016-05-06T05:01:12.589Z,4
2016-05-06T05:02:12.624Z,4
2016-05-06T05:03:12.689Z,4
2016-05-06T05:04:12.706Z,4
2016-05-06T05:05:12.757Z,4
2016-05-06T05:06:12.790Z,4
2016-05-06T05:07:12.840Z,4
2016-05-06T05:08:12.873Z,4
2016-05-06T05:09:12.909Z,4
2016-05-06T05:10:12.942Z,4
2016-05-06T05:11:13.327Z,4
2016-05-06T05:12:13.095Z,4
2016-05-06T05:13:13.208Z,4
2016-05-06T05:14:13.273Z,4
2016-05-06T05:15:13.370Z,4
2016-05-06T05:16:13.452Z,4
2016-05-06T05:17:13.503Z,4
2016-05-06T05:18:13.554Z,4
2016-05-06T05:19:13.605Z,8
2016-05-06T05:20:13.671Z,8
2016-05-06T05:21:13.732Z,8
2016-05-06T05:22:13.601Z,4
2016-05-06T05:23:13.797Z,4
2016-05-06T05:24:13.852Z,4
2016-05-06T05:25:13.893Z,4
2016-05-06T05:26:13.915Z,4
2016-05-06T05:27:13.999Z,8
2016-05-06T05:28:14.019Z,8
2016-05-06T05:29:13.915Z,4
2016-05-06T05:30:14.107Z,8
2016-05-06T05:31:14.158Z,8
2016-05-06T05:32:13.896Z,8
2016-05-06T05:33:14.243Z,8
2016-05-06T05:34:14.278Z,8
2016-05-06T05:35:14.156Z,4
2016-05-06T05:36:14.363Z,8
2016-05-06T05:37:14.397Z,8
2016-05-06T05:38:14.276Z,8
2016-05-06T05:39:14.482Z,8
2016-05-06T05:40:14.532Z,8
2016-05-06T05:41:15.441Z,8
2016-05-06T05:42:14.616Z,8
2016-05-06T05:43:14.649Z,12
2016-05-06T05:44:14.683Z,8
2016-05-06T05:45:14.717Z,8
2016-05-06T05:46:14.766Z,12
2016-05-06T05:47:14.801Z,12
2016-05-06T05:48:14.694Z,12
2016-05-06T05:49:14.885Z,12
2016-05-06T05:50:14.934Z,12
2016-05-06T05:51:14.812Z,12
2016-05-06T05:52:15.001Z,8
2016-05-06T05:53:15.035Z,8
2016-05-06T05:54:15.085Z,12
2016-05-06T05:55:14.979Z,8
2016-05-06T05:56:15.793Z,12
2016-05-06T05:57:15.218Z,12
2016-05-06T05:58:15.268Z,12
2016-05-06T05:59:15.567Z,12
2016-05-06T06:00:15.320Z,12
2016-05-06T06:01:15.370Z,12
2016-05-06T06:02:15.419Z,12
2016-05-06T06:03:15.297Z,12
2016-05-06T06:04:15.487Z,12
2016-05-06T06:05:15.536Z,8
2016-05-06T06:06:15.570Z,8
2016-05-06T06:07:15.605Z,8
2016-05-06T06:08:15.670Z,8
2016-05-06T06:09:15.688Z,8
2016-05-06T06:10:15.738Z,8
2016-05-06T06:11:16.193Z,8
2016-05-06T06:12:15.805Z,8
2016-05-06T06:13:15.855Z,12
2016-05-06T06:14:15.733Z,12
2016-05-06T06:15:15.939Z,12
2016-05-06T06:16:15.972Z,12
2016-05-06T06:17:16.006Z,12
2016-05-06T06:18:16.056Z,8
2016-05-06T06:19:16.090Z,8
2016-05-06T06:20:16.155Z,8
2016-05-06T06:21:16.174Z,8
2016-05-06T06:22:16.207Z,8
2016-05-06T06:23:16.101Z,8
2016-05-06T06:24:16.306Z,8
2016-05-06T06:25:16.341Z,8
2016-05-06T06:26:16.077Z,8
2016-05-06T06:27:16.424Z,8
2016-05-06T06:28:16.457Z,8
2016-05-06T06:29:16.710Z,8
2016-05-06T06:30:16.603Z,8
2016-05-06T06:31:16.576Z,8
2016-05-06T06:32:16.609Z,8
2016-05-06T06:33:16.877Z,8
2016-05-06T06:34:16.709Z,8
2016-05-06T06:35:16.586Z,8
2016-05-06T06:36:16.619Z,8
2016-05-06T06:37:16.826Z,8
2016-05-06T06:38:16.859Z,8
2016-05-06T06:39:16.909Z,8
2016-05-06T06:40:16.944Z,8
2016-05-06T06:41:17.242Z,8
2016-05-06T06:42:17.027Z,8
2016-05-06T06:43:17.060Z,8
2016-05-06T06:44:17.094Z,8
2016-05-06T06:45:17.144Z,8
2016-05-06T06:46:17.038Z,8
2016-05-06T06:47:17.416Z,8
2016-05-06T06:48:17.511Z,8
2016-05-06T06:49:17.311Z,8
2016-05-06T06:50:17.360Z,8
2016-05-06T06:51:17.394Z,12
2016-05-06T06:52:17.272Z,12
2016-05-06T06:53:17.479Z,12
2016-05-06T06:54:17.512Z,12
2016-05-06T06:55:17.546Z,8
2016-05-06T06:56:18.157Z,12
2016-05-06T06:57:17.473Z,12
2016-05-06T06:58:17.663Z,12
2016-05-06T06:59:17.697Z,12
2016-05-06T07:00:17.607Z,12
2016-05-06T07:01:17.796Z,8
2016-05-06T07:02:17.831Z,8
2016-05-06T07:03:17.865Z,20
2016-05-06T07:04:17.914Z,16
2016-05-06T07:05:17.963Z,16
2016-05-06T07:06:18.013Z,16
2016-05-06T07:07:18.031Z,16
2016-05-06T07:08:17.909Z,16
2016-05-06T07:09:18.130Z,16
2016-05-06T07:10:18.150Z,16
2016-05-06T07:11:18.042Z,16
2016-05-06T07:12:18.075Z,20
2016-05-06T07:13:18.266Z,16
2016-05-06T07:14:18.316Z,20
2016-05-06T07:15:18.349Z,16
2016-05-06T07:16:18.399Z,16
2016-05-06T07:17:18.433Z,16
2016-05-06T07:18:18.327Z,16
2016-05-06T07:19:18.377Z,16
2016-05-06T07:20:18.566Z,16
2016-05-06T07:21:18.444Z,16
2016-05-06T07:22:18.477Z,16
2016-05-06T07:23:18.688Z,16
2016-05-06T07:24:18.723Z,20
2016-05-06T07:25:18.756Z,16
2016-05-06T07:26:19.056Z,16
2016-05-06T07:27:18.840Z,16
2016-05-06T07:28:18.890Z,16
2016-05-06T07:29:18.923Z,16
2016-05-06T07:30:18.957Z,16
2016-05-06T07:31:18.992Z,20
2016-05-06T07:32:18.885Z,20
2016-05-06T07:33:19.107Z,20
2016-05-06T07:34:19.125Z,20
2016-05-06T07:35:19.002Z,16
2016-05-06T07:36:19.192Z,16
2016-05-06T07:37:19.242Z,16
2016-05-06T07:38:19.291Z,16
2016-05-06T07:39:19.325Z,20
2016-05-06T07:40:19.359Z,20
2016-05-06T07:41:20.628Z,20
2016-05-06T07:42:19.443Z,20
2016-05-06T07:43:19.477Z,16
2016-05-06T07:44:19.511Z,16
2016-05-06T07:45:19.576Z,16
2016-05-06T07:46:19.610Z,20
2016-05-06T07:47:19.660Z,20
2016-05-06T07:48:19.677Z,16
2016-05-06T07:49:19.728Z,20
2016-05-06T07:50:19.777Z,20
2016-05-06T07:51:19.654Z,20
2016-05-06T07:52:19.845Z,16
2016-05-06T07:53:19.894Z,16
2016-05-06T07:54:19.928Z,16
2016-05-06T07:55:19.962Z,20
2016-05-06T07:56:19.871Z,20
2016-05-06T07:57:19.905Z,20
2016-05-06T07:58:20.111Z,20
2016-05-06T07:59:19.974Z,16
2016-05-06T08:00:20.007Z,20
2016-05-06T08:01:20.228Z,20
2016-05-06T08:02:20.247Z,20
2016-05-06T08:03:20.296Z,20
2016-05-06T08:04:20.189Z,20
2016-05-06T08:05:20.223Z,16
2016-05-06T08:06:20.398Z,20
2016-05-06T08:07:20.448Z,20
2016-05-06T08:08:20.497Z,20
2016-05-06T08:09:20.531Z,20
2016-05-06T08:10:20.597Z,20
2016-05-06T08:11:20.817Z,20
2016-05-06T08:12:20.649Z,20
2016-05-06T08:13:20.697Z,20
2016-05-06T08:14:20.576Z,20
2016-05-06T08:15:20.782Z,20
2016-05-06T08:16:20.660Z,20
2016-05-06T08:17:20.865Z,20
2016-05-06T08:18:20.899Z,20
2016-05-06T08:19:20.793Z,20
2016-05-06T08:20:21.013Z,20
2016-05-06T08:21:21.376Z,24
2016-05-06T08:22:21.394Z,24
2016-05-06T08:23:21.460Z,20
2016-05-06T08:24:21.165Z,20
2016-05-06T08:25:21.215Z,20
2016-05-06T08:26:21.327Z,20
2016-05-06T08:27:21.282Z,20
2016-05-06T08:28:21.317Z,20
2016-05-06T08:29:21.382Z,20
2016-05-06T08:30:21.431Z,20
2016-05-06T08:31:21.418Z,20
2016-05-06T08:32:21.468Z,20
2016-05-06T08:33:21.502Z,24
2016-05-06T08:34:21.411Z,20
2016-05-06T08:35:21.586Z,20
2016-05-06T08:36:21.479Z,20
2016-05-06T08:37:21.669Z,24
2016-05-06T08:38:21.562Z,20
2016-05-06T08:39:21.752Z,20
2016-05-06T08:40:21.631Z,24
2016-05-06T08:41:22.398Z,20
2016-05-06T08:42:21.886Z,24
2016-05-06T08:43:21.919Z,20
2016-05-06T08:44:21.953Z,20
2016-05-06T08:45:21.988Z,20
2016-05-06T08:46:22.036Z,20
2016-05-06T08:47:22.071Z,20
2016-05-06T08:48:22.121Z,20
2016-05-06T08:49:21.998Z,20
2016-05-06T08:50:22.047Z,20
2016-05-06T08:51:22.238Z,20
2016-05-06T08:52:22.271Z,20
2016-05-06T08:53:22.322Z,20
2016-05-06T08:54:22.355Z,20
2016-05-06T08:55:22.390Z,24
2016-05-06T08:56:22.970Z,20
2016-05-06T08:57:22.473Z,24
2016-05-06T08:58:22.523Z,24
2016-05-06T08:59:22.557Z,24
2016-05-06T09:00:22.606Z,24
2016-05-06T09:01:22.640Z,20
2016-05-06T09:02:22.673Z,20
2016-05-06T09:03:22.755Z,20
2016-05-06T09:04:22.757Z,20
2016-05-06T09:05:22.651Z,20
2016-05-06T09:06:22.684Z,24
2016-05-06T09:07:22.875Z,24
2016-05-06T09:08:22.924Z,24
2016-05-06T09:09:22.958Z,24
2016-05-06T09:10:23.008Z,24
2016-05-06T09:11:23.089Z,24
2016-05-06T09:12:23.092Z,20
2016-05-06T09:13:23.125Z,20
2016-05-06T09:14:23.159Z,20
2016-05-06T09:15:23.208Z,24
2016-05-06T09:16:23.242Z,24
2016-05-06T09:17:23.292Z,24
2016-05-06T09:18:23.327Z,24
2016-05-06T09:19:23.375Z,24
2016-05-06T09:20:23.097Z,24
2016-05-06T09:21:23.459Z,24
2016-05-06T09:22:23.494Z,24
2016-05-06T09:23:23.527Z,24
2016-05-06T09:24:23.576Z,24
2016-05-06T09:25:23.627Z,24
2016-05-06T09:26:23.677Z,28
2016-05-06T09:27:23.694Z,24
2016-05-06T09:28:23.729Z,24
2016-05-06T09:29:23.777Z,28
2016-05-06T09:30:23.812Z,24
2016-05-06T09:31:23.861Z,24
2016-05-06T09:32:23.895Z,28
2016-05-06T09:33:23.929Z,28
2016-05-06T09:34:23.979Z,24
2016-05-06T09:35:24.013Z,28
2016-05-06T09:36:24.062Z,28
2016-05-06T09:37:24.096Z,24
2016-05-06T09:38:24.146Z,28
2016-05-06T09:39:24.179Z,24
2016-05-06T09:40:24.214Z,24
2016-05-06T09:41:24.264Z,28
2016-05-06T09:42:24.297Z,28
2016-05-06T09:43:24.331Z,28
2016-05-06T09:44:24.225Z,28
2016-05-06T09:45:24.431Z,28
2016-05-06T09:46:24.464Z,28
2016-05-06T09:47:24.498Z,28
2016-05-06T09:48:24.548Z,28
2016-05-06T09:49:24.581Z,28
2016-05-06T09:50:24.615Z,28
2016-05-06T09:51:24.666Z,40
2016-05-06T09:52:24.699Z,36
2016-05-06T09:53:24.436Z,40
2016-05-06T09:54:24.783Z,40
2016-05-06T09:55:24.832Z,40
2016-05-06T09:56:24.866Z,44
2016-05-06T09:57:24.900Z,44
2016-05-06T09:58:24.949Z,44
2016-05-06T09:59:24.983Z,44
2016-05-06T10:00:24.860Z,44
2016-05-06T10:01:25.068Z,40
2016-05-06T10:02:25.116Z,44
2016-05-06T10:03:24.993Z,44
2016-05-06T10:04:25.185Z,44
2016-05-06T10:05:25.218Z,48
2016-05-06T10:06:25.111Z,44
2016-05-06T10:07:25.318Z,44
2016-05-06T10:08:25.195Z,28
2016-05-06T10:09:25.385Z,36
2016-05-06T10:10:25.279Z,36
2016-05-06T10:11:26.203Z,40
2016-05-06T10:12:25.518Z,40
2016-05-06T10:13:25.553Z,36
2016-05-06T10:14:25.587Z,40
2016-05-06T10:15:25.636Z,40
2016-05-06T10:16:25.670Z,36
2016-05-06T10:17:25.563Z,40
2016-05-06T10:18:25.753Z,40
2016-05-06T10:19:25.787Z,40
2016-05-06T10:20:25.696Z,40
2016-05-06T10:21:25.872Z,44
2016-05-06T10:22:25.905Z,40
2016-05-06T10:23:25.955Z,44
2016-05-06T10:24:25.847Z,44
2016-05-06T10:25:25.865Z,44
2016-05-06T10:26:26.275Z,48
2016-05-06T10:27:25.965Z,44
2016-05-06T10:28:26.140Z,48
2016-05-06T10:29:26.189Z,48
2016-05-06T10:30:26.254Z,48
2016-05-06T10:31:26.288Z,48
2016-05-06T10:32:26.307Z,52
2016-05-06T10:33:26.357Z,52
2016-05-06T10:34:26.234Z,48
2016-05-06T10:35:26.440Z,52
2016-05-06T10:36:26.473Z,48
2016-05-06T10:37:26.523Z,52
2016-05-06T10:38:26.557Z,52
2016-05-06T10:39:26.294Z,52
2016-05-06T10:40:26.640Z,52
2016-05-06T10:41:27.034Z,52
2016-05-06T10:42:26.724Z,56
2016-05-06T10:43:26.601Z,56
2016-05-06T10:44:26.808Z,56
2016-05-06T10:45:26.686Z,56
2016-05-06T10:46:26.875Z,52
2016-05-06T10:47:26.769Z,72
2016-05-06T10:48:26.819Z,72
2016-05-06T10:49:27.008Z,76
2016-05-06T10:50:27.028Z,76
2016-05-06T10:51:27.077Z,76
2016-05-06T10:52:26.985Z,76
2016-05-06T10:53:27.160Z,76
2016-05-06T10:54:27.038Z,80
2016-05-06T10:55:27.244Z,80
2016-05-06T10:56:27.153Z,84
2016-05-06T10:57:27.327Z,84
2016-05-06T10:58:27.205Z,84
2016-05-06T10:59:27.394Z,80
2016-05-06T11:00:27.461Z,84
2016-05-06T11:01:27.321Z,84
2016-05-06T11:02:27.528Z,88
2016-05-06T11:03:27.562Z,92
2016-05-06T11:04:27.596Z,92
2016-05-06T11:05:27.645Z,96
2016-05-06T11:06:27.679Z,96
2016-05-06T11:07:27.729Z,96
2016-05-06T11:08:27.763Z,100
2016-05-06T11:09:27.812Z,100
2016-05-06T11:10:27.706Z,104
2016-05-06T11:11:29.099Z,104
2016-05-06T11:12:27.946Z,108
2016-05-06T11:13:27.964Z,108
2016-05-06T11:14:27.857Z,112
2016-05-06T11:15:28.048Z,116
2016-05-06T11:16:27.925Z,116
2016-05-06T11:17:28.131Z,116
2016-05-06T11:18:28.165Z,116
2016-05-06T11:19:28.214Z,120
2016-05-06T11:20:28.248Z,84
2016-05-06T11:21:28.283Z,124
2016-05-06T11:22:28.317Z,124
2016-05-06T11:23:28.366Z,128
2016-05-06T11:24:28.415Z,124
2016-05-06T11:25:28.465Z,128
2016-05-06T11:26:28.358Z,132
2016-05-06T11:27:28.533Z,132
2016-05-06T11:28:28.567Z,132
2016-05-06T11:29:28.616Z,136
2016-05-06T11:30:28.650Z,136
2016-05-06T11:31:28.685Z,136
2016-05-06T11:32:28.593Z,140
2016-05-06T11:33:28.768Z,140
2016-05-06T11:34:28.818Z,140
2016-05-06T11:35:28.851Z,140
2016-05-06T11:36:28.886Z,148
2016-05-06T11:37:28.622Z,144
2016-05-06T11:38:28.968Z,148
2016-05-06T11:39:29.003Z,104
2016-05-06T11:40:29.052Z,108
2016-05-06T11:41:29.087Z,104
2016-05-06T11:42:29.135Z,108
2016-05-06T11:43:29.842Z,108
2016-05-06T11:44:29.220Z,112
2016-05-06T11:45:29.253Z,108
2016-05-06T11:46:29.146Z,108
2016-05-06T11:47:29.196Z,112
2016-05-06T11:48:29.370Z,112
2016-05-06T11:49:29.248Z,84
2016-05-06T11:50:29.454Z,120
2016-05-06T11:51:29.489Z,120
2016-05-06T11:52:29.241Z,120
2016-05-06T11:53:29.572Z,124
2016-05-06T11:54:29.465Z,124
2016-05-06T11:55:29.655Z,128
2016-05-06T11:56:29.705Z,128
2016-05-06T11:57:29.754Z,124
2016-05-06T11:58:29.633Z,112
2016-05-06T11:59:29.806Z,140
2016-05-06T12:00:29.855Z,140
2016-05-06T12:01:29.891Z,144
2016-05-06T12:02:29.955Z,148
2016-05-06T12:03:29.974Z,148
2016-05-06T12:04:30.023Z,148
2016-05-06T12:05:30.058Z,152
2016-05-06T12:06:30.107Z,152
2016-05-06T12:07:30.124Z,156
2016-05-06T12:08:30.035Z,160
2016-05-06T12:09:30.224Z,160
2016-05-06T12:10:30.086Z,156
2016-05-06T12:11:30.870Z,160
2016-05-06T12:12:30.341Z,164
2016-05-06T12:13:30.376Z,164
2016-05-06T12:14:30.409Z,164
2016-05-06T12:15:30.459Z,168
2016-05-06T12:16:30.508Z,152
2016-05-06T12:17:30.230Z,172
2016-05-06T12:18:30.420Z,176
2016-05-06T12:19:30.485Z,180
2016-05-06T12:20:30.660Z,184
2016-05-06T12:21:30.537Z,188
2016-05-06T12:22:30.743Z,188
2016-05-06T12:23:30.778Z,188
2016-05-06T12:24:30.842Z,192
2016-05-06T12:25:30.861Z,196
2016-05-06T12:26:30.911Z,200
2016-05-06T12:27:30.945Z,204
2016-05-06T12:28:30.978Z,204
2016-05-06T12:29:39.293Z,208
2016-05-06T12:30:31.062Z,208
2016-05-06T12:31:31.111Z,212
2016-05-06T12:32:31.161Z,212
2016-05-06T12:33:31.180Z,216
2016-05-06T12:34:31.229Z,220
2016-05-06T12:35:31.263Z,220
2016-05-06T12:36:31.312Z,224
2016-05-06T12:37:31.191Z,224
2016-05-06T12:38:31.380Z,228
2016-05-06T12:39:31.538Z,228
2016-05-06T12:40:31.933Z,228
2016-05-06T12:41:31.513Z,232
2016-05-06T12:42:31.546Z,232
2016-05-06T12:43:31.582Z,232
2016-05-06T12:44:31.631Z,236
2016-05-06T12:45:31.524Z,240
2016-05-06T12:46:31.557Z,244
2016-05-06T12:47:31.748Z,244
2016-05-06T12:48:31.642Z,248
2016-05-06T12:49:31.848Z,248
2016-05-06T12:50:31.866Z,252
2016-05-06T12:51:31.915Z,256
2016-05-06T12:52:31.949Z,256
2016-05-06T12:53:42.873Z,256
2016-05-06T12:54:32.767Z,256
2016-05-06T12:55:32.082Z,256
2016-05-06T12:56:32.459Z,252
2016-05-06T12:57:32.150Z,140
2016-05-06T12:58:32.200Z,176
2016-05-06T12:59:32.234Z,268
2016-05-06T13:00:32.283Z,264
2016-05-06T13:01:32.317Z,268
2016-05-06T13:02:32.351Z,268
2016-05-06T13:03:32.400Z,276
2016-05-06T13:04:33.153Z,280
2016-05-06T13:05:32.781Z,276
2016-05-06T13:06:32.408Z,276
2016-05-06T13:07:32.911Z,284
2016-05-06T13:08:33.633Z,284
2016-05-06T13:09:32.651Z,288
2016-05-06T13:10:32.669Z,288
2016-05-06T13:11:32.735Z,292
2016-05-06T13:12:32.752Z,296
2016-05-06T13:13:32.802Z,296
2016-05-06T13:14:32.837Z,296
2016-05-06T13:15:32.886Z,300
2016-05-06T13:16:32.935Z,304
2016-05-06T13:17:32.970Z,304
2016-05-06T13:18:33.004Z,308
2016-05-06T13:19:33.054Z,312
2016-05-06T13:20:33.087Z,312
2016-05-06T13:21:33.121Z,312
2016-05-06T13:22:33.171Z,316
2016-05-06T13:23:33.205Z,316
2016-05-06T13:24:33.254Z,320
2016-05-06T13:25:33.287Z,324
2016-05-06T13:26:33.337Z,324
2016-05-06T13:27:33.215Z,328
2016-05-06T13:28:33.437Z,328
2016-05-06T13:29:33.455Z,332
2016-05-06T13:30:33.505Z,336
2016-05-06T13:31:33.383Z,336
2016-05-06T13:32:33.573Z,344
2016-05-06T13:33:33.466Z,344
2016-05-06T13:34:33.656Z,344
2016-05-06T13:35:33.689Z,344
2016-05-06T13:36:33.584Z,340
2016-05-06T13:37:33.773Z,344
2016-05-06T13:38:33.822Z,332
2016-05-06T13:39:33.857Z,336
2016-05-06T13:40:33.891Z,336
2016-05-06T13:41:33.924Z,332
2016-05-06T13:42:33.990Z,324
2016-05-06T13:43:33.883Z,312
2016-05-06T13:44:33.902Z,304
2016-05-06T13:45:34.107Z,296
2016-05-06T13:46:34.157Z,304
2016-05-06T13:47:34.175Z,280
2016-05-06T13:48:34.224Z,272
2016-05-06T13:49:34.259Z,276
2016-05-06T13:50:34.292Z,236
2016-05-06T13:51:34.342Z,216
2016-05-06T13:52:34.407Z,212
2016-05-06T13:53:34.442Z,168
2016-05-06T13:54:34.460Z,160
2016-05-06T13:55:34.509Z,148
2016-05-06T13:56:34.934Z,136
2016-05-06T13:57:34.453Z,132
2016-05-06T13:58:34.626Z,120
2016-05-06T13:59:34.661Z,112
2016-05-06T14:00:34.710Z,104
2016-05-06T14:01:34.588Z,92
2016-05-06T14:02:34.778Z,88
2016-05-06T14:03:34.828Z,84
2016-05-06T14:04:34.877Z,80
2016-05-06T14:05:34.911Z,84
2016-05-06T14:06:34.945Z,76
2016-05-06T14:07:34.995Z,76
2016-05-06T14:08:35.028Z,76
2016-05-06T14:09:35.078Z,68
2016-05-06T14:10:35.113Z,68
2016-05-06T14:11:35.162Z,64
2016-05-06T14:12:35.196Z,68
2016-05-06T14:13:35.230Z,68
2016-05-06T14:14:35.123Z,76
2016-05-06T14:15:35.313Z,68
2016-05-06T14:16:35.363Z,72
2016-05-06T14:17:35.438Z,72
2016-05-06T14:18:35.515Z,76
2016-05-06T14:19:35.608Z,76
2016-05-06T14:20:35.687Z,88
2016-05-06T14:21:35.780Z,76
2016-05-06T14:22:35.846Z,72
2016-05-06T14:23:35.881Z,76